Check out our new PWSWeather beta!
PWSweather.com
Personal Weather Stations
Station Observations
ALMOSTER
Urb. Mas Carreras, AlmosterES 43393

Urb. Mas CarrerasAlmosterES 43393

Lat: 41.1908333333, Lon: 1.1086111111

Elevation: 836.6

Station Type: Davis Vantage Pro 2

http://www.meteoalmoster.net

Latest ConditionsUpdated 11:30:07 AM GMT+01:01 Wednesday, Feb 26, 2020
Currently Today's Max Today's Min Today's Average
Temperature 56.5°F13.6°C 60.6°F15.9°C 51.8°F11.0°C 55.5°F13.1°C
Dew Point 33.6°F0.9°C 39.9°F4.4°C 29.8°F-1.2°C 35.3°F1.8°C
Winds 25.0 mph NW40.2 kmh NW 32.0 mph -51.5 kmh - - 21.5 mph 34.6 kmh
Wind Gusts 47.0 mph75.6 kmh 57.0 mph91.7 kmh - -
Humidity 42% 53% 37% 47%
Pressure 29.92 in1013.2 mb 29.97 in1014.9 mb 29.85 in1010.8 mb -
Precipitation - 0.02 in0.5 mm - -
Hour Temp Dew Point Humidity Winds Wind Gusts Pressure Precip Precip Rate Daily Precip Total
11:30 AM 56.5°F13.6°C 33.6°F0.9°C 42% 25.0 mph NW40.2 kmh NW 47.0 mph75.6 kmh 29.92 in1013.2 mb 0.00 in0.0 mm 0.00 in0.0 mm 0.02 in0.5 mm
11:00 AM 55.2°F12.9°C 34.3°F1.3°C 45% 26.0 mph NW41.8 kmh NW 47.0 mph75.6 kmh 29.95 in1014.2 mb 0.00 in0.0 mm 0.00 in0.0 mm 0.02 in0.5 mm
10:30 AM 53.6°F12.0°C 34.3°F1.3°C 48% 20.0 mph NW32.2 kmh NW 40.0 mph64.4 kmh 29.95 in1014.2 mb 0.00 in0.0 mm 0.00 in0.0 mm 0.02 in0.5 mm
10:00 AM 54.0°F12.2°C 34.2°F1.2°C 47% 23.0 mph NW37.0 kmh NW 44.0 mph70.8 kmh 29.92 in1013.2 mb 0.00 in0.0 mm 0.00 in0.0 mm 0.02 in0.5 mm
09:30 AM 53.2°F11.8°C 33.6°F0.9°C 47% 28.0 mph NW45.1 kmh NW 47.0 mph75.6 kmh 29.90 in1012.5 mb 0.00 in0.0 mm 0.00 in0.0 mm 0.02 in0.5 mm
09:00 AM 52.9°F11.6°C 33.6°F0.9°C 48% 25.0 mph NW40.2 kmh NW 39.0 mph62.8 kmh 29.90 in1012.5 mb 0.00 in0.0 mm 0.00 in0.0 mm 0.02 in0.5 mm
08:30 AM 52.2°F11.2°C 33.1°F0.6°C 48% 23.0 mph NW37.0 kmh NW 39.0 mph62.8 kmh 29.90 in1012.5 mb 0.00 in0.0 mm 0.00 in0.0 mm 0.02 in0.5 mm
08:00 AM 51.8°F11.0°C 33.8°F1.0°C 50% 26.0 mph SE41.8 kmh SE 46.0 mph74.0 kmh 29.89 in1012.2 mb 0.00 in0.0 mm 0.00 in0.0 mm 0.02 in0.5 mm
07:30 AM 52.0°F11.1°C 33.3°F0.7°C 49% 24.0 mph SE38.6 kmh SE 46.0 mph74.0 kmh 29.89 in1012.2 mb 0.00 in0.0 mm 0.00 in0.0 mm 0.02 in0.5 mm
07:00 AM 52.9°F11.6°C 33.3°F0.7°C 47% 28.0 mph SE45.1 kmh SE 47.0 mph75.6 kmh 29.88 in1011.9 mb 0.00 in0.0 mm 0.00 in0.0 mm 0.02 in0.5 mm
06:30 AM 53.8°F12.1°C 32.9°F0.5°C 45% 23.0 mph SE37.0 kmh SE 40.0 mph64.4 kmh 29.88 in1011.9 mb 0.00 in0.0 mm 0.00 in0.0 mm 0.02 in0.5 mm
06:00 AM 55.8°F13.2°C 29.8°F-1.2°C 37% 27.0 mph SE43.5 kmh SE 49.0 mph78.9 kmh 29.87 in1011.5 mb 0.00 in0.0 mm 0.00 in0.0 mm 0.02 in0.5 mm
05:30 AM 56.3°F13.5°C 30.9°F-0.6°C 38% 29.0 mph SSE46.7 kmh SSE 56.0 mph90.1 kmh 29.86 in1011.2 mb 0.00 in0.0 mm 0.00 in0.0 mm 0.02 in0.5 mm
05:00 AM 55.9°F13.3°C 33.1°F0.6°C 42% 29.0 mph SSE46.7 kmh SSE 51.0 mph82.1 kmh 29.85 in1010.8 mb 0.00 in0.0 mm 0.00 in0.0 mm 0.02 in0.5 mm
04:30 AM 56.7°F13.7°C 34.3°F1.3°C 43% 32.0 mph SSE51.5 kmh SSE 57.0 mph91.7 kmh 29.86 in1011.2 mb 0.00 in0.0 mm 0.00 in0.0 mm 0.02 in0.5 mm
04:00 AM 55.8°F13.2°C 37.4°F3.0°C 50% 30.0 mph SSE48.3 kmh SSE 52.0 mph83.7 kmh 29.86 in1011.2 mb 0.02 in0.5 mm 0.00 in0.0 mm 0.02 in0.5 mm
03:30 AM 55.8°F13.2°C 37.8°F3.2°C 51% 29.0 mph SSE46.7 kmh SSE 52.0 mph83.7 kmh 29.88 in1011.9 mb 0.02 in0.5 mm 0.04 in1.0 mm 0.02 in0.5 mm
03:00 AM 56.3°F13.5°C 38.5°F3.6°C 51% 20.0 mph SSE32.2 kmh SSE 39.0 mph62.8 kmh 29.91 in1012.9 mb 0.00 in0.0 mm 0.00 in0.0 mm 0.00 in0.0 mm
02:30 AM 57.0°F13.9°C 38.7°F3.7°C 50% 12.0 mph SE19.3 kmh SE 41.0 mph66.0 kmh 29.92 in1013.2 mb 0.00 in0.0 mm 0.00 in0.0 mm 0.00 in0.0 mm
02:00 AM 57.6°F14.2°C 38.5°F3.6°C 49% 7.0 mph ESE11.3 kmh ESE 19.0 mph30.6 kmh 29.95 in1014.2 mb 0.00 in0.0 mm 0.00 in0.0 mm 0.00 in0.0 mm
01:30 AM 56.8°F13.8°C 39.9°F4.4°C 53% 6.0 mph NE9.7 kmh NE 13.0 mph20.9 kmh 29.95 in1014.2 mb 0.00 in0.0 mm 0.00 in0.0 mm 0.00 in0.0 mm
01:00 AM 59.2°F15.1°C 39.4°F4.1°C 48% 11.0 mph ESE17.7 kmh ESE 27.0 mph43.5 kmh 29.96 in1014.6 mb 0.00 in0.0 mm 0.00 in0.0 mm 0.00 in0.0 mm
12:30 AM 59.5°F15.3°C 39.2°F4.0°C 47% 8.0 mph E12.9 kmh E 21.0 mph33.8 kmh 29.97 in1014.9 mb 0.00 in0.0 mm 0.00 in0.0 mm 0.00 in0.0 mm
12:00 AM 60.6°F15.9°C 38.7°F3.7°C 44% 6.0 mph SE9.7 kmh SE 16.0 mph25.7 kmh 29.97 in1014.9 mb 0.00 in0.0 mm 0.00 in0.0 mm 0.00 in0.0 mm